sensor_id;sensor_type;location;lat;lon;timestamp;pressure;altitude;pressure_sealevel;temperature;humidity
71795;BME280;59641;45.188;5.712;2022-10-16T00:01:13;99308.31;;;19.66;60.04
71795;BME280;59641;45.188;5.712;2022-10-16T00:03:40;99311.63;;;19.63;59.90
71795;BME280;59641;45.188;5.712;2022-10-16T00:06:07;99305.63;;;19.61;59.98
71795;BME280;59641;45.188;5.712;2022-10-16T00:08:33;99313.81;;;19.61;60.18
71795;BME280;59641;45.188;5.712;2022-10-16T00:11:04;99318.13;;;19.62;60.25
71795;BME280;59641;45.188;5.712;2022-10-16T00:13:32;99316.22;;;19.62;60.01
71795;BME280;59641;45.188;5.712;2022-10-16T00:15:59;99321.97;;;19.61;60.33
71795;BME280;59641;45.188;5.712;2022-10-16T00:18:26;99320.31;;;19.59;59.89
71795;BME280;59641;45.188;5.712;2022-10-16T00:20:52;99320.63;;;19.53;60.51
71795;BME280;59641;45.188;5.712;2022-10-16T00:23:18;99318.19;;;19.51;60.01
71795;BME280;59641;45.188;5.712;2022-10-16T00:25:58;99323.09;;;19.49;59.84
71795;BME280;59641;45.188;5.712;2022-10-16T00:28:25;99320.69;;;19.43;60.47
71795;BME280;59641;45.188;5.712;2022-10-16T00:30:51;99325.56;;;19.41;60.37
71795;BME280;59641;45.188;5.712;2022-10-16T00:33:17;99330.22;;;19.40;60.28
71795;BME280;59641;45.188;5.712;2022-10-16T00:35:42;99322.06;;;19.40;60.55
71795;BME280;59641;45.188;5.712;2022-10-16T00:38:09;99320.13;;;19.41;60.27
71795;BME280;59641;45.188;5.712;2022-10-16T00:40:34;99324.78;;;19.40;60.56
71795;BME280;59641;45.188;5.712;2022-10-16T00:43:00;99330.50;;;19.39;60.44
71795;BME280;59641;45.188;5.712;2022-10-16T00:45:28;99332.97;;;19.35;60.43
71795;BME280;59641;45.188;5.712;2022-10-16T00:47:55;99334.91;;;19.29;60.62
71795;BME280;59641;45.188;5.712;2022-10-16T00:50:33;99339.00;;;19.27;60.21
71795;BME280;59641;45.188;5.712;2022-10-16T00:53:03;99337.34;;;19.26;60.51
71795;BME280;59641;45.188;5.712;2022-10-16T00:55:30;99338.69;;;19.28;60.54
71795;BME280;59641;45.188;5.712;2022-10-16T00:57:59;99339.22;;;19.30;60.55
71795;BME280;59641;45.188;5.712;2022-10-16T01:00:26;99350.91;;;19.31;60.42
71795;BME280;59641;45.188;5.712;2022-10-16T01:03:00;99352.84;;;19.30;60.22
71795;BME280;59641;45.188;5.712;2022-10-16T01:05:34;99357.47;;;19.30;60.38
71795;BME280;59641;45.188;5.712;2022-10-16T01:08:34;99360.72;;;19.32;60.03
71795;BME280;59641;45.188;5.712;2022-10-16T01:13:43;99359.63;;;19.33;60.30
71795;BME280;59641;45.188;5.712;2022-10-16T01:21:47;99358.84;;;19.27;60.14
71795;BME280;59641;45.188;5.712;2022-10-16T01:27:22;99357.75;;;19.23;60.25
71795;BME280;59641;45.188;5.712;2022-10-16T01:30:04;99361.56;;;19.22;60.31
71795;BME280;59641;45.188;5.712;2022-10-16T01:33:03;99359.13;;;19.21;60.06
71795;BME280;59641;45.188;5.712;2022-10-16T01:35:35;99365.66;;;19.20;60.03
71795;BME280;59641;45.188;5.712;2022-10-16T01:40:32;99370.03;;;19.15;60.25
71795;BME280;59641;45.188;5.712;2022-10-16T01:43:22;99368.38;;;19.14;60.17
71795;BME280;59641;45.188;5.712;2022-10-16T01:45:47;99379.56;;;19.13;60.67
71795;BME280;59641;45.188;5.712;2022-10-16T01:48:16;99378.75;;;19.12;60.27
71795;BME280;59641;45.188;5.712;2022-10-16T01:50:44;99384.44;;;19.11;60.44
71795;BME280;59641;45.188;5.712;2022-10-16T01:53:15;99375.75;;;19.09;60.58
71795;BME280;59641;45.188;5.712;2022-10-16T01:55:44;99382.28;;;19.08;60.45
71795;BME280;59641;45.188;5.712;2022-10-16T01:58:13;99385.28;;;19.01;61.12
71795;BME280;59641;45.188;5.712;2022-10-16T02:00:42;99388.81;;;18.97;60.91
71795;BME280;59641;45.188;5.712;2022-10-16T02:03:11;99392.91;;;18.94;61.31
71795;BME280;59641;45.188;5.712;2022-10-16T02:05:41;99382.31;;;18.87;60.82
71795;BME280;59641;45.188;5.712;2022-10-16T02:08:08;99385.31;;;18.86;61.45
71795;BME280;59641;45.188;5.712;2022-10-16T02:10:35;99385.84;;;18.83;61.04
71795;BME280;59641;45.188;5.712;2022-10-16T02:13:08;99376.88;;;18.82;61.17
71795;BME280;59641;45.188;5.712;2022-10-16T02:15:34;99389.09;;;18.85;61.54
71795;BME280;59641;45.188;5.712;2022-10-16T02:18:02;99378.78;;;18.87;61.32
71795;BME280;59641;45.188;5.712;2022-10-16T02:20:32;99386.69;;;18.88;61.36
71795;BME280;59641;45.188;5.712;2022-10-16T02:23:00;99382.03;;;18.89;61.33
71795;BME280;59641;45.188;5.712;2022-10-16T02:25:30;99391.56;;;18.91;61.19
71795;BME280;59641;45.188;5.712;2022-10-16T02:30:59;99397.25;;;18.90;61.43
71795;BME280;59641;45.188;5.712;2022-10-16T02:33:28;99395.63;;;18.89;61.21
71795;BME280;59641;45.188;5.712;2022-10-16T02:35:57;99396.44;;;18.89;61.41
71795;BME280;59641;45.188;5.712;2022-10-16T02:38:24;99393.72;;;18.89;61.41
71795;BME280;59641;45.188;5.712;2022-10-16T02:40:51;99396.19;;;18.91;61.27
71795;BME280;59641;45.188;5.712;2022-10-16T02:43:17;99397.00;;;18.86;61.21
71795;BME280;59641;45.188;5.712;2022-10-16T02:45:43;99392.13;;;18.83;60.99
71795;BME280;59641;45.188;5.712;2022-10-16T02:48:09;99389.66;;;18.82;61.24
71795;BME280;59641;45.188;5.712;2022-10-16T02:50:34;99392.09;;;18.78;61.13
71795;BME280;59641;45.188;5.712;2022-10-16T02:52:59;99387.75;;;18.77;61.48
71795;BME280;59641;45.188;5.712;2022-10-16T02:55:25;99394.81;;;18.78;61.23
71795;BME280;59641;45.188;5.712;2022-10-16T02:57:51;99394.53;;;18.74;61.54
71795;BME280;59641;45.188;5.712;2022-10-16T03:00:17;99395.09;;;18.71;61.66
71795;BME280;59641;45.188;5.712;2022-10-16T03:02:43;99397.25;;;18.69;61.85
71795;BME280;59641;45.188;5.712;2022-10-16T03:05:09;99401.34;;;18.67;61.58
71795;BME280;59641;45.188;5.712;2022-10-16T03:07:35;99394.81;;;18.68;61.68
71795;BME280;59641;45.188;5.712;2022-10-16T03:10:00;99400.78;;;18.65;61.87
71795;BME280;59641;45.188;5.712;2022-10-16T03:12:27;99398.88;;;18.65;61.37
71795;BME280;59641;45.188;5.712;2022-10-16T03:14:53;99390.72;;;18.65;61.50
71795;BME280;59641;45.188;5.712;2022-10-16T03:17:18;99396.72;;;18.67;61.46
71795;BME280;59641;45.188;5.712;2022-10-16T03:19:44;99401.03;;;18.68;61.71
71795;BME280;59641;45.188;5.712;2022-10-16T03:22:09;99401.88;;;18.69;61.55
71795;BME280;59641;45.188;5.712;2022-10-16T03:24:34;99401.34;;;18.67;61.56
71795;BME280;59641;45.188;5.712;2022-10-16T03:27:00;99402.97;;;18.63;61.32
71795;BME280;59641;45.188;5.712;2022-10-16T03:29:25;99398.06;;;18.60;61.56
71795;BME280;59641;45.188;5.712;2022-10-16T03:31:51;99392.09;;;18.58;61.62
71795;BME280;59641;45.188;5.712;2022-10-16T03:34:17;99393.72;;;18.59;62.09
71795;BME280;59641;45.188;5.712;2022-10-16T03:36:42;99395.91;;;18.62;61.58
71795;BME280;59641;45.188;5.712;2022-10-16T03:39:07;99395.63;;;18.63;61.53
71795;BME280;59641;45.188;5.712;2022-10-16T03:41:33;99399.13;;;18.64;61.32
71795;BME280;59641;45.188;5.712;2022-10-16T03:43:58;99394.53;;;18.64;61.42
71795;BME280;59641;45.188;5.712;2022-10-16T03:46:23;99395.63;;;18.63;61.30
71795;BME280;59641;45.188;5.712;2022-10-16T03:48:49;99401.06;;;18.63;61.54
71795;BME280;59641;45.188;5.712;2022-10-16T03:51:14;99396.72;;;18.62;61.48
71795;BME280;59641;45.188;5.712;2022-10-16T03:53:40;99396.72;;;18.62;61.27
71795;BME280;59641;45.188;5.712;2022-10-16T03:56:06;99402.41;;;18.61;61.38
71795;BME280;59641;45.188;5.712;2022-10-16T03:58:31;99398.59;;;18.57;61.41
71795;BME280;59641;45.188;5.712;2022-10-16T04:00:57;99396.16;;;18.55;61.14
71795;BME280;59641;45.188;5.712;2022-10-16T04:03:22;99393.72;;;18.53;61.13
71795;BME280;59641;45.188;5.712;2022-10-16T04:05:48;99391.81;;;18.49;61.38
71795;BME280;59641;45.188;5.712;2022-10-16T04:08:14;99398.34;;;18.48;61.65
71795;BME280;59641;45.188;5.712;2022-10-16T04:10:39;99401.06;;;18.48;61.42
71795;BME280;59641;45.188;5.712;2022-10-16T04:13:04;99395.06;;;18.46;61.77
71795;BME280;59641;45.188;5.712;2022-10-16T04:15:30;99401.06;;;18.48;61.04
71795;BME280;59641;45.188;5.712;2022-10-16T04:17:55;99397.53;;;18.47;61.64
71795;BME280;59641;45.188;5.712;2022-10-16T04:20:20;99392.91;;;18.48;61.45
71795;BME280;59641;45.188;5.712;2022-10-16T04:22:46;99395.06;;;18.46;61.30
71795;BME280;59641;45.188;5.712;2022-10-16T04:25:11;99396.44;;;18.43;61.18
71795;BME280;59641;45.188;5.712;2022-10-16T04:27:38;99393.16;;;18.41;61.17
71795;BME280;59641;45.188;5.712;2022-10-16T04:30:04;99396.16;;;18.35;61.43
71795;BME280;59641;45.188;5.712;2022-10-16T04:32:30;99392.63;;;18.34;61.49
71795;BME280;59641;45.188;5.712;2022-10-16T04:34:55;99403.47;;;18.34;61.43
71795;BME280;59641;45.188;5.712;2022-10-16T04:37:27;99404.03;;;18.36;61.71
71795;BME280;59641;45.188;5.712;2022-10-16T04:39:53;99407.31;;;18.38;61.56
71795;BME280;59641;45.188;5.712;2022-10-16T04:42:19;99401.06;;;18.38;61.44
71795;BME280;59641;45.188;5.712;2022-10-16T04:44:45;99410.00;;;18.38;61.31
71795;BME280;59641;45.188;5.712;2022-10-16T04:47:10;99409.72;;;18.40;61.36
71795;BME280;59641;45.188;5.712;2022-10-16T04:49:35;99409.72;;;18.40;61.05
71795;BME280;59641;45.188;5.712;2022-10-16T04:52:01;99410.28;;;18.42;61.35
71795;BME280;59641;45.188;5.712;2022-10-16T04:54:26;99410.03;;;18.43;61.14
71795;BME280;59641;45.188;5.712;2022-10-16T04:56:52;99413.28;;;18.45;60.83
71795;BME280;59641;45.188;5.712;2022-10-16T04:59:18;99420.34;;;18.46;61.18
71795;BME280;59641;45.188;5.712;2022-10-16T05:01:45;99424.97;;;18.46;60.94
71795;BME280;59641;45.188;5.712;2022-10-16T05:04:10;99413.53;;;18.44;61.10
71795;BME280;59641;45.188;5.712;2022-10-16T05:06:36;99423.84;;;18.42;60.72
71795;BME280;59641;45.188;5.712;2022-10-16T05:09:04;99420.34;;;18.36;60.76
71795;BME280;59641;45.188;5.712;2022-10-16T05:11:29;99420.31;;;18.31;61.41
71795;BME280;59641;45.188;5.712;2022-10-16T05:13:54;99414.91;;;18.26;61.13
71795;BME280;59641;45.188;5.712;2022-10-16T05:16:20;99414.59;;;18.22;61.37
71795;BME280;59641;45.188;5.712;2022-10-16T05:18:45;99419.47;;;18.20;61.79
71795;BME280;59641;45.188;5.712;2022-10-16T05:21:10;99420.56;;;18.19;61.69
71795;BME280;59641;45.188;5.712;2022-10-16T05:23:36;99423.84;;;18.16;61.61
71795;BME280;59641;45.188;5.712;2022-10-16T05:26:01;99423.00;;;18.16;61.36
71795;BME280;59641;45.188;5.712;2022-10-16T05:28:28;99421.38;;;18.15;61.29
71795;BME280;59641;45.188;5.712;2022-10-16T05:30:55;99428.44;;;18.16;61.56
71795;BME280;59641;45.188;5.712;2022-10-16T05:33:23;99430.34;;;18.15;61.36
71795;BME280;59641;45.188;5.712;2022-10-16T05:35:49;99428.44;;;18.16;61.55
71795;BME280;59641;45.188;5.712;2022-10-16T05:38:18;99431.44;;;18.14;61.36
71795;BME280;59641;45.188;5.712;2022-10-16T05:40:50;99437.41;;;18.16;61.50
71795;BME280;59641;45.188;5.712;2022-10-16T05:43:15;99441.75;;;18.17;61.47
71795;BME280;59641;45.188;5.712;2022-10-16T05:45:41;99433.59;;;18.17;61.35
71795;BME280;59641;45.188;5.712;2022-10-16T05:48:06;99432.25;;;18.15;61.12
71795;BME280;59641;45.188;5.712;2022-10-16T05:50:31;99443.38;;;18.13;61.32
71795;BME280;59641;45.188;5.712;2022-10-16T05:52:57;99442.00;;;18.05;61.32
71795;BME280;59641;45.188;5.712;2022-10-16T05:55:22;99442.53;;;18.02;61.54
71795;BME280;59641;45.188;5.712;2022-10-16T05:57:48;99432.72;;;17.96;61.68
71795;BME280;59641;45.188;5.712;2022-10-16T06:00:13;99436.22;;;17.92;61.55
71795;BME280;59641;45.188;5.712;2022-10-16T06:02:39;99437.03;;;17.87;61.76
71795;BME280;59641;45.188;5.712;2022-10-16T06:05:04;99451.72;;;17.91;61.74
71795;BME280;59641;45.188;5.712;2022-10-16T06:07:34;99453.06;;;17.94;61.70
71795;BME280;59641;45.188;5.712;2022-10-16T06:10:00;99462.03;;;17.94;61.26
71795;BME280;59641;45.188;5.712;2022-10-16T06:12:26;99465.84;;;17.93;61.40
71795;BME280;59641;45.188;5.712;2022-10-16T06:14:52;99469.38;;;17.94;61.48
71795;BME280;59641;45.188;5.712;2022-10-16T06:17:17;99473.97;;;17.93;61.26
71795;BME280;59641;45.188;5.712;2022-10-16T06:19:43;99466.09;;;17.92;61.65
71795;BME280;59641;45.188;5.712;2022-10-16T06:22:08;99475.09;;;17.92;61.78
71795;BME280;59641;45.188;5.712;2022-10-16T06:24:33;99476.97;;;17.92;61.20
71795;BME280;59641;45.188;5.712;2022-10-16T06:26:59;99479.97;;;17.90;61.63
71795;BME280;59641;45.188;5.712;2022-10-16T06:29:24;99479.41;;;17.88;61.47
71795;BME280;59641;45.188;5.712;2022-10-16T06:31:49;99483.19;;;17.87;61.11
71795;BME280;59641;45.188;5.712;2022-10-16T06:34:15;99486.72;;;17.87;61.33
71795;BME280;59641;45.188;5.712;2022-10-16T06:36:40;99488.06;;;17.85;61.40
71795;BME280;59641;45.188;5.712;2022-10-16T06:39:06;99485.38;;;17.85;61.26
71795;BME280;59641;45.188;5.712;2022-10-16T06:41:33;99495.38;;;17.84;61.57
71795;BME280;59641;45.188;5.712;2022-10-16T06:43:59;99494.31;;;17.80;61.24
71795;BME280;59641;45.188;5.712;2022-10-16T06:46:25;99495.63;;;17.78;61.59
71795;BME280;59641;45.188;5.712;2022-10-16T06:48:52;99494.78;;;17.77;61.93
71795;BME280;59641;45.188;5.712;2022-10-16T06:51:20;99501.84;;;17.78;61.50
71795;BME280;59641;45.188;5.712;2022-10-16T06:53:51;99500.19;;;17.77;61.60
71795;BME280;59641;45.188;5.712;2022-10-16T06:56:21;99504.81;;;17.77;61.46
71795;BME280;59641;45.188;5.712;2022-10-16T06:58:48;99514.31;;;17.74;61.96
71795;BME280;59641;45.188;5.712;2022-10-16T07:01:15;99505.59;;;17.67;61.95
71795;BME280;59641;45.188;5.712;2022-10-16T07:03:42;99513.72;;;17.67;61.83
71795;BME280;59641;45.188;5.712;2022-10-16T07:06:10;99511.78;;;17.62;62.06
71795;BME280;59641;45.188;5.712;2022-10-16T07:08:38;99516.41;;;17.62;61.95
71795;BME280;59641;45.188;5.712;2022-10-16T07:11:06;99510.44;;;17.60;62.20
71795;BME280;59641;45.188;5.712;2022-10-16T07:13:35;99517.78;;;17.64;61.91
71795;BME280;59641;45.188;5.712;2022-10-16T07:16:15;99521.63;;;17.68;61.95
71795;BME280;59641;45.188;5.712;2022-10-16T07:18:41;99522.44;;;17.69;62.12
71795;BME280;59641;45.188;5.712;2022-10-16T07:21:11;99532.75;;;17.72;61.71
71795;BME280;59641;45.188;5.712;2022-10-16T07:23:37;99526.22;;;17.68;61.74
71795;BME280;59641;45.188;5.712;2022-10-16T07:26:03;99539.25;;;17.66;61.78
71795;BME280;59641;45.188;5.712;2022-10-16T07:28:29;99534.06;;;17.64;61.82
71795;BME280;59641;45.188;5.712;2022-10-16T07:31:00;99545.47;;;17.66;61.85
71795;BME280;59641;45.188;5.712;2022-10-16T07:33:26;99543.31;;;17.68;61.68
71795;BME280;59641;45.188;5.712;2022-10-16T07:35:52;99542.53;;;17.73;62.04
71795;BME280;59641;45.188;5.712;2022-10-16T07:38:18;99539.00;;;17.73;61.58
71795;BME280;59641;45.188;5.712;2022-10-16T07:40:44;99536.81;;;17.75;61.53
71795;BME280;59641;45.188;5.712;2022-10-16T07:43:10;99540.91;;;17.77;61.67
71795;BME280;59641;45.188;5.712;2022-10-16T07:45:36;99553.41;;;17.78;61.39
71795;BME280;59641;45.188;5.712;2022-10-16T07:48:01;99554.28;;;17.84;61.54
71795;BME280;59641;45.188;5.712;2022-10-16T07:50:26;99553.50;;;17.88;61.36
71795;BME280;59641;45.188;5.712;2022-10-16T07:52:52;99550.25;;;17.92;61.76
71795;BME280;59641;45.188;5.712;2022-10-16T07:55:17;99548.66;;;17.96;61.56
71795;BME280;59641;45.188;5.712;2022-10-16T07:57:43;99555.75;;;18.02;61.30
71795;BME280;59641;45.188;5.712;2022-10-16T08:00:08;99549.25;;;18.08;60.78
71795;BME280;59641;45.188;5.712;2022-10-16T08:02:41;99554.69;;;18.13;60.88
71795;BME280;59641;45.188;5.712;2022-10-16T08:05:07;99557.44;;;18.18;60.32
71795;BME280;59641;45.188;5.712;2022-10-16T08:07:33;99558.53;;;18.22;60.18
71795;BME280;59641;45.188;5.712;2022-10-16T08:09:58;99563.44;;;18.25;60.02
71795;BME280;59641;45.188;5.712;2022-10-16T08:12:27;99561.28;;;18.33;59.79
71795;BME280;59641;45.188;5.712;2022-10-16T08:14:52;99557.25;;;18.35;59.83
71795;BME280;59641;45.188;5.712;2022-10-16T08:17:18;99556.72;;;18.38;59.03
71795;BME280;59641;45.188;5.712;2022-10-16T08:19:45;99556.19;;;18.41;59.17
71795;BME280;59641;45.188;5.712;2022-10-16T08:22:10;99546.13;;;18.47;59.30
71795;BME280;59641;45.188;5.712;2022-10-16T08:24:35;99552.66;;;18.51;59.18
71795;BME280;59641;45.188;5.712;2022-10-16T08:27:02;99549.72;;;18.63;59.06
71795;BME280;59641;45.188;5.712;2022-10-16T08:29:27;99541.56;;;18.68;58.74
71795;BME280;59641;45.188;5.712;2022-10-16T08:31:53;99554.91;;;18.74;58.69
71795;BME280;59641;45.188;5.712;2022-10-16T08:34:18;99549.50;;;18.80;57.94
71795;BME280;59641;45.188;5.712;2022-10-16T08:36:44;99551.16;;;18.86;58.14
71795;BME280;59641;45.188;5.712;2022-10-16T08:39:09;99544.88;;;18.90;57.15
71795;BME280;59641;45.188;5.712;2022-10-16T08:44:34;99544.91;;;19.01;57.55
71795;BME280;59641;45.188;5.712;2022-10-16T08:49:56;99551.16;;;19.16;56.90
71795;BME280;59641;45.188;5.712;2022-10-16T08:52:25;99545.75;;;19.27;56.99
71795;BME280;59641;45.188;5.712;2022-10-16T08:54:55;99544.63;;;19.33;56.14
71795;BME280;59641;45.188;5.712;2022-10-16T08:57:23;99548.69;;;19.41;56.49
71795;BME280;59641;45.188;5.712;2022-10-16T08:59:49;99550.06;;;19.48;56.55
71795;BME280;59641;45.188;5.712;2022-10-16T09:02:23;99553.59;;;19.54;56.78
71795;BME280;59641;45.188;5.712;2022-10-16T09:08:03;99554.41;;;19.70;56.78
71795;BME280;59641;45.188;5.712;2022-10-16T09:19:05;99561.94;;;19.98;55.98
71795;BME280;59641;45.188;5.712;2022-10-16T09:21:40;99552.69;;;20.05;55.79
71795;BME280;59641;45.188;5.712;2022-10-16T09:24:14;99560.56;;;20.11;56.05
71795;BME280;59641;45.188;5.712;2022-10-16T09:26:40;99563.28;;;20.16;55.70
71795;BME280;59641;45.188;5.712;2022-10-16T09:29:06;99555.06;;;20.21;55.24
71795;BME280;59641;45.188;5.712;2022-10-16T09:31:31;99564.56;;;20.29;55.66
71795;BME280;59641;45.188;5.712;2022-10-16T09:34:00;99571.91;;;20.34;55.54
71795;BME280;59641;45.188;5.712;2022-10-16T09:36:35;99556.66;;;20.38;55.44
71795;BME280;59641;45.188;5.712;2022-10-16T09:39:09;99555.81;;;20.42;54.93
71795;BME280;59641;45.188;5.712;2022-10-16T09:41:37;99559.56;;;20.52;55.19
71795;BME280;59641;45.188;5.712;2022-10-16T09:44:06;99551.09;;;20.58;55.19
71795;BME280;59641;45.188;5.712;2022-10-16T09:46:40;99551.38;;;20.62;54.75
71795;BME280;59641;45.188;5.712;2022-10-16T09:49:20;99560.06;;;20.69;55.11
71795;BME280;59641;45.188;5.712;2022-10-16T09:51:46;99564.34;;;20.75;54.73
71795;BME280;59641;45.188;5.712;2022-10-16T09:54:19;99557.78;;;20.81;54.22
71795;BME280;59641;45.188;5.712;2022-10-16T09:56:45;99554.75;;;20.88;54.70
71795;BME280;59641;45.188;5.712;2022-10-16T09:59:18;99558.78;;;20.96;54.53
71795;BME280;59641;45.188;5.712;2022-10-16T10:01:51;99549.44;;;21.02;54.15
71795;BME280;59641;45.188;5.712;2022-10-16T10:04:19;99546.72;;;21.07;53.97
71795;BME280;59641;45.188;5.712;2022-10-16T10:06:45;99548.56;;;21.12;53.83
71795;BME280;59641;45.188;5.712;2022-10-16T10:09:47;99541.69;;;21.19;54.31
71795;BME280;59641;45.188;5.712;2022-10-16T10:12:23;99539.94;;;21.28;54.13
71795;BME280;59641;45.188;5.712;2022-10-16T10:14:51;99538.28;;;21.33;54.03
71795;BME280;59641;45.188;5.712;2022-10-16T10:17:27;99540.97;;;21.38;53.77
71795;BME280;59641;45.188;5.712;2022-10-16T10:22:43;99529.66;;;21.55;53.65
71795;BME280;59641;45.188;5.712;2022-10-16T10:33:24;99531.72;;;21.92;52.48
71795;BME280;59641;45.188;5.712;2022-10-16T10:36:07;99523.38;;;22.02;53.07
71795;BME280;59641;45.188;5.712;2022-10-16T10:50:18;99505.00;;;22.70;52.49
71795;BME280;59641;45.188;5.712;2022-10-16T11:06:50;99484.84;;;23.17;52.05
71795;BME280;59641;45.188;5.712;2022-10-16T11:09:22;99469.13;;;23.23;50.67
71795;BME280;59641;45.188;5.712;2022-10-16T11:17:21;99451.22;;;23.45;50.58
71795;BME280;59641;45.188;5.712;2022-10-16T11:20:23;99446.66;;;23.54;48.77
71795;BME280;59641;45.188;5.712;2022-10-16T11:26:01;99442.66;;;23.79;49.62
71795;BME280;59641;45.188;5.712;2022-10-16T11:28:53;99438.56;;;23.90;49.38
71795;BME280;59641;45.188;5.712;2022-10-16T11:31:32;99449.31;;;24.00;49.62
71795;BME280;59641;45.188;5.712;2022-10-16T11:39:34;99439.88;;;24.29;46.12
71795;BME280;59641;45.188;5.712;2022-10-16T11:44:59;99432.38;;;24.49;47.17
71795;BME280;59641;45.188;5.712;2022-10-16T11:47:34;99424.69;;;24.59;47.71
71795;BME280;59641;45.188;5.712;2022-10-16T11:50:09;99425.38;;;24.65;47.26
71795;BME280;59641;45.188;5.712;2022-10-16T11:53:13;99423.00;;;24.72;46.23
71795;BME280;59641;45.188;5.712;2022-10-16T11:55:43;99435.03;;;24.85;45.92
71795;BME280;59641;45.188;5.712;2022-10-16T12:00:57;99416.19;;;24.92;45.46
71795;BME280;59641;45.188;5.712;2022-10-16T12:08:49;99427.84;;;25.60;40.21
71795;BME280;59641;45.188;5.712;2022-10-16T12:11:36;99423.75;;;26.06;41.30
71795;BME280;59641;45.188;5.712;2022-10-16T12:16:58;99420.25;;;26.58;41.48
71795;BME280;59641;45.188;5.712;2022-10-16T12:19:26;99415.69;;;26.62;39.04
71795;BME280;59641;45.188;5.712;2022-10-16T12:21:55;99408.28;;;26.63;38.85
71795;BME280;59641;45.188;5.712;2022-10-16T12:24:41;99413.28;;;26.61;41.09
71795;BME280;59641;45.188;5.712;2022-10-16T12:27:30;99408.91;;;26.60;39.22
71795;BME280;59641;45.188;5.712;2022-10-16T12:30:04;99412.94;;;26.62;40.44
71795;BME280;59641;45.188;5.712;2022-10-16T12:32:36;99402.59;;;26.59;37.48
71795;BME280;59641;45.188;5.712;2022-10-16T12:35:05;99408.41;;;26.58;37.37
71795;BME280;59641;45.188;5.712;2022-10-16T12:37:38;99404.88;;;26.57;39.63
71795;BME280;59641;45.188;5.712;2022-10-16T12:40:23;99400.03;;;26.54;38.98
71795;BME280;59641;45.188;5.712;2022-10-16T12:42:50;99398.56;;;26.56;38.31
71795;BME280;59641;45.188;5.712;2022-10-16T12:45:33;99390.63;;;26.55;36.48
71795;BME280;59641;45.188;5.712;2022-10-16T12:48:01;99393.53;;;26.59;38.74
71795;BME280;59641;45.188;5.712;2022-10-16T12:50:38;99392.88;;;26.62;38.46
71795;BME280;59641;45.188;5.712;2022-10-16T12:53:21;99390.63;;;26.64;37.52
71795;BME280;59641;45.188;5.712;2022-10-16T12:56:04;99402.13;;;26.66;37.94
71795;BME280;59641;45.188;5.712;2022-10-16T12:58:58;99399.03;;;26.67;35.99
71795;BME280;59641;45.188;5.712;2022-10-16T13:18:15;99400.28;;;26.87;35.86
71795;BME280;59641;45.188;5.712;2022-10-16T13:21:07;99398.66;;;26.86;34.30
71795;BME280;59641;45.188;5.712;2022-10-16T13:29:00;99394.59;;;26.92;36.41
71795;BME280;59641;45.188;5.712;2022-10-16T13:31:27;99391.84;;;26.92;35.59
71795;BME280;59641;45.188;5.712;2022-10-16T13:33:56;99387.94;;;26.93;34.53
71795;BME280;59641;45.188;5.712;2022-10-16T13:36:34;99392.47;;;26.98;36.39
71795;BME280;59641;45.188;5.712;2022-10-16T13:39:12;99388.25;;;27.01;35.22
71795;BME280;59641;45.188;5.712;2022-10-16T13:41:38;99385.66;;;27.04;34.53
71795;BME280;59641;45.188;5.712;2022-10-16T13:44:05;99390.50;;;27.07;34.58
71795;BME280;59641;45.188;5.712;2022-10-16T13:46:34;99388.06;;;27.06;33.34
71795;BME280;59641;45.188;5.712;2022-10-16T13:49:14;99385.47;;;27.09;34.53
71795;BME280;59641;45.188;5.712;2022-10-16T13:51:40;99390.00;;;27.14;33.63
71795;BME280;59641;45.188;5.712;2022-10-16T13:54:09;99395.16;;;27.15;33.57
71795;BME280;59641;45.188;5.712;2022-10-16T13:56:35;99396.97;;;27.20;33.24
71795;BME280;59641;45.188;5.712;2022-10-16T13:59:02;99395.03;;;27.21;33.67
71795;BME280;59641;45.188;5.712;2022-10-16T14:01:32;99393.41;;;27.19;34.96
71795;BME280;59641;45.188;5.712;2022-10-16T14:04:04;99391.59;;;27.15;35.11
71795;BME280;59641;45.188;5.712;2022-10-16T14:06:31;99388.06;;;27.14;33.64
71795;BME280;59641;45.188;5.712;2022-10-16T14:09:31;99388.84;;;27.15;34.98
71795;BME280;59641;45.188;5.712;2022-10-16T14:12:01;99388.84;;;27.15;34.75
71795;BME280;59641;45.188;5.712;2022-10-16T14:14:43;99399.38;;;27.13;34.15
71795;BME280;59641;45.188;5.712;2022-10-16T14:17:38;99397.47;;;27.13;34.31
71795;BME280;59641;45.188;5.712;2022-10-16T14:20:14;99402.16;;;27.13;33.78
71795;BME280;59641;45.188;5.712;2022-10-16T14:22:42;99393.88;;;27.13;32.95
71795;BME280;59641;45.188;5.712;2022-10-16T14:27:56;99399.06;;;27.14;33.58
71795;BME280;59641;45.188;5.712;2022-10-16T14:30:22;99403.09;;;27.17;34.43
71795;BME280;59641;45.188;5.712;2022-10-16T14:32:57;99404.56;;;27.14;35.03
71795;BME280;59641;45.188;5.712;2022-10-16T14:35:38;99399.38;;;27.13;34.07
71795;BME280;59641;45.188;5.712;2022-10-16T14:38:06;99400.22;;;27.13;34.24
71795;BME280;59641;45.188;5.712;2022-10-16T14:40:47;99405.72;;;27.13;34.36
71795;BME280;59641;45.188;5.712;2022-10-16T14:45:54;99408.00;;;27.11;34.79
71795;BME280;59641;45.188;5.712;2022-10-16T14:48:20;99411.06;;;27.10;33.80
71795;BME280;59641;45.188;5.712;2022-10-16T14:50:46;99413.50;;;27.11;34.12
71795;BME280;59641;45.188;5.712;2022-10-16T14:53:12;99414.63;;;27.10;33.73
71795;BME280;59641;45.188;5.712;2022-10-16T14:55:39;99416.56;;;27.10;34.52
71795;BME280;59641;45.188;5.712;2022-10-16T14:58:05;99413.69;;;27.06;34.34
71795;BME280;59641;45.188;5.712;2022-10-16T15:00:31;99416.28;;;27.03;33.27
71795;BME280;59641;45.188;5.712;2022-10-16T15:02:57;99417.75;;;27.00;35.35
71795;BME280;59641;45.188;5.712;2022-10-16T15:05:27;99418.72;;;26.95;35.04
71795;BME280;59641;45.188;5.712;2022-10-16T15:07:55;99418.59;;;26.92;33.66
71795;BME280;59641;45.188;5.712;2022-10-16T15:10:26;99416.47;;;26.89;34.14
71795;BME280;59641;45.188;5.712;2022-10-16T15:12:53;99422.81;;;26.89;34.28
71795;BME280;59641;45.188;5.712;2022-10-16T15:15:34;99419.88;;;26.86;34.23
71795;BME280;59641;45.188;5.712;2022-10-16T15:18:01;99421.03;;;26.85;33.29